Annapolis, Missouri
Current Conditions -  °F | °C
As of 12:35 PM on Saturday 20 Dec 2014 (Local Time) from KFAM Reporting Station
Overcast Overcast  
Wind Chill: 35°   Ceiling: 1600
Heat Index: 39°   Visibility: 10mi
Dew Point: 34°   Wind: 6mph
Humidity: 81%   Direction: 130°SE
Pressure: 30.23"   Gusts: NA
Location:  37.36°N, 90.7°W
Report Text: KFAM 201835Z AUTO 13005KT 10SM OVC016 04/01 A3023 RMK AO1
Loading
Personal Weather Stations






























Interactive Weather Map New forecast layout! Learn more

10-Day Weather Forecast

Advertisements
Track Severe Weather on mobile